Login to view Products
 
Monday, August 19, 2019 (06:55 UTC)
Abu Dhabi International Airport
Last Updated: 19-Aug-2019 (06:54Z)
Wind Dir/Speed: SE at 08 kt
Temperature: 39.6°C
Rel. Humidity: 29 %
Pressure: 1002.9 hPa
Visibility: 6000 m
ACTUALS:
  • SPECI OMAA 190615Z 16009KT 130V200 5000 DU NSC 39/19 Q1003 BECMG 7000 NSW
  • TAF OMAA 190500Z 1906/2012 16012KT 4000 DU NSC BECMG 1907/1909 8000 NSW BECMG 1909/1911 33013KT BECMG 1918/1920 05008KT BECMG 2000/2002 15012KT PROB40 TEMPO 2003/2007 4000 DU BECMG 2010/2012 32010KT=
D:\Input Parser\Destinations\Final\05\OMAAL0612050095314160.txt
1